Time;durP1;ratioP1;P1;durP2;ratioP2;P2;SDS_P1;SDS_P2;PMS_P1;PMS_P2;Temp;Humidity;BMP_temperature;BMP_pressure;BME280_temperature;BME280_humidity;BME280_pressure;Samples;Min_cycle;Max_cycle;Signal;HPM_P1;HPM_P2
2023/09/30 00:00:04;;;;;;;9.00;4.80;;;;;;;17.59;99.61;99685.93;109471;1253;58705;-62
2023/09/30 00:03:16;;;;;;;11.50;5.30;;;;;;;17.55;99.59;99683.52;109519;1252;74634;-61
2023/09/30 00:06:04;;;;;;;9.80;4.90;;;;;;;17.52;99.53;99687.16;109497;1252;67826;-61
2023/09/30 00:08:52;;;;;;;10.60;5.70;;;;;;;17.50;99.98;99687.98;109537;1252;73560;-62
2023/09/30 00:11:41;;;;;;;10.90;6.20;;;;;;;17.49;99.97;99690.77;109529;1253;59270;-62
2023/09/30 00:14:29;;;;;;;12.60;6.10;;;;;;;17.44;100.00;99685.23;109512;1253;61129;-63
2023/09/30 00:17:17;;;;;;;14.00;6.10;;;;;;;17.44;100.00;99687.21;109475;1253;73307;-63
2023/09/30 00:20:05;;;;;;;13.20;6.90;;;;;;;17.40;100.00;99691.39;109547;1252;69008;-62
2023/09/30 00:22:53;;;;;;;10.90;6.10;;;;;;;17.37;100.00;99689.24;109523;1252;73349;-62
2023/09/30 00:25:41;;;;;;;10.50;6.00;;;;;;;17.32;100.00;99689.27;109526;1252;58455;-61
2023/09/30 00:28:29;;;;;;;12.90;6.70;;;;;;;17.27;100.00;99688.38;109611;1252;60229;-63
2023/09/30 00:31:16;;;;;;;11.60;6.50;;;;;;;17.22;100.00;99684.27;109488;1253;73199;-62
2023/09/30 00:34:04;;;;;;;11.70;6.80;;;;;;;17.18;100.00;99684.70;109577;1252;67584;-63
2023/09/30 00:36:52;;;;;;;13.30;7.80;;;;;;;17.16;100.00;99680.59;109571;1252;71774;-63
2023/09/30 00:39:39;;;;;;;14.10;7.60;;;;;;;17.16;100.00;99680.40;109511;1252;59902;-63
2023/09/30 00:42:27;;;;;;;12.50;6.90;;;;;;;17.16;100.00;99679.16;109514;1252;60420;-63
2023/09/30 00:45:15;;;;;;;13.00;8.30;;;;;;;17.17;100.00;99683.73;109571;1252;72125;-63
2023/09/30 00:48:03;;;;;;;12.20;7.40;;;;;;;17.19;100.00;99685.80;109555;1252;67890;-64
2023/09/30 00:50:51;;;;;;;15.50;8.30;;;;;;;17.21;100.00;99685.10;109481;1252;71227;-63
2023/09/30 00:53:40;;;;;;;16.00;9.00;;;;;;;17.23;100.00;99683.61;109547;1252;58972;-63
2023/09/30 00:56:30;;;;;;;14.00;8.40;;;;;;;17.26;100.00;99687.64;109519;1252;59973;-65
2023/09/30 00:59:18;;;;;;;13.00;7.90;;;;;;;17.28;100.00;99693.14;109272;1253;72342;-63
2023/09/30 01:02:07;;;;;;;13.40;8.20;;;;;;;17.29;100.00;99694.06;109586;1253;67777;-64
2023/09/30 01:04:55;;;;;;;14.00;8.20;;;;;;;17.31;100.00;99690.08;109348;1253;171998;-62
2023/09/30 01:07:42;;;;;;;15.40;9.50;;;;;;;17.27;100.00;99681.88;109492;1253;58584;-65
2023/09/30 01:10:30;;;;;;;14.50;8.80;;;;;;;17.30;100.00;99679.63;109475;1253;59151;-64
2023/09/30 01:13:18;;;;;;;15.20;8.50;;;;;;;17.29;100.00;99673.82;109501;1253;72096;-67
2023/09/30 01:16:09;;;;;;;12.50;8.10;;;;;;;17.28;100.00;99670.89;109590;1253;67176;-62
2023/09/30 01:18:57;;;;;;;14.80;9.00;;;;;;;17.26;100.00;99675.60;109550;1252;72844;-63
2023/09/30 01:21:48;;;;;;;13.80;8.10;;;;;;;17.24;100.00;99677.77;109493;1253;59471;-62
2023/09/30 01:24:40;;;;;;;16.80;8.90;;;;;;;17.21;100.00;99679.52;109546;1253;59168;-62
2023/09/30 01:27:28;;;;;;;15.90;9.60;;;;;;;17.20;100.00;99682.38;109356;1253;72950;-63
2023/09/30 01:30:17;;;;;;;12.60;7.60;;;;;;;17.17;100.00;99682.45;109572;1253;68041;-62
2023/09/30 01:33:07;;;;;;;13.60;8.70;;;;;;;17.14;100.00;99680.80;109478;1252;73465;-63
2023/09/30 01:35:55;;;;;;;17.40;9.10;;;;;;;17.13;100.00;99684.95;109533;1253;59189;-65
2023/09/30 01:38:43;;;;;;;14.60;8.10;;;;;;;17.11;100.00;99681.55;109568;1253;61375;-63
2023/09/30 01:41:31;;;;;;;14.40;8.40;;;;;;;17.11;100.00;99679.44;109534;1257;72058;-61
2023/09/30 01:44:18;;;;;;;13.20;7.90;;;;;;;17.09;100.00;99673.13;109561;1252;66702;-63
2023/09/30 01:47:06;;;;;;;15.30;8.80;;;;;;;17.08;100.00;99676.22;109550;1252;72504;-62
2023/09/30 01:49:54;;;;;;;15.70;8.80;;;;;;;17.03;100.00;99664.57;109486;1253;60587;-64
2023/09/30 01:52:42;;;;;;;14.00;8.60;;;;;;;17.04;100.00;99664.94;109548;1252;60450;-63
2023/09/30 01:55:31;;;;;;;13.40;8.60;;;;;;;17.05;100.00;99662.76;109554;1252;72352;-63
2023/09/30 01:58:18;;;;;;;12.90;8.20;;;;;;;17.02;100.00;99672.13;109529;1252;67896;-63
2023/09/30 02:01:06;;;;;;;15.40;8.50;;;;;;;17.02;100.00;99680.92;109523;1253;73960;-62
2023/09/30 02:03:55;;;;;;;14.70;9.50;;;;;;;17.04;100.00;99675.05;109548;1253;58248;-62
2023/09/30 02:06:45;;;;;;;15.70;8.50;;;;;;;17.05;100.00;99675.55;109522;1253;60159;-62
2023/09/30 02:09:32;;;;;;;12.30;8.20;;;;;;;17.09;100.00;99682.44;109524;1252;72714;-60
2023/09/30 02:12:21;;;;;;;15.40;9.60;;;;;;;17.10;100.00;99680.55;109522;1252;68198;-62
2023/09/30 02:15:46;;;;;;;16.10;9.10;;;;;;;17.17;100.00;99687.99;109269;1255;71381;-63
2023/09/30 02:18:33;;;;;;;15.10;8.70;;;;;;;17.23;100.00;99688.95;108810;1262;60787;-64
2023/09/30 02:21:22;;;;;;;14.60;9.70;;;;;;;17.27;100.00;99686.73;108761;1262;60349;-63
2023/09/30 02:24:10;;;;;;;16.90;9.50;;;;;;;17.32;100.00;99683.02;108870;1262;73555;-64
2023/09/30 02:26:58;;;;;;;17.30;8.80;;;;;;;17.36;100.00;99688.41;108881;1262;67642;-63
2023/09/30 02:29:45;;;;;;;15.40;9.60;;;;;;;17.39;100.00;99690.05;108832;1262;72807;-64
2023/09/30 02:32:33;;;;;;;15.40;8.40;;;;;;;17.42;100.00;99697.44;108863;1261;59466;-66
2023/09/30 02:35:21;;;;;;;15.70;9.00;;;;;;;17.44;100.00;99699.94;109028;1258;60488;-63
2023/09/30 02:38:08;;;;;;;14.20;8.40;;;;;;;17.46;100.00;99702.23;109010;1258;72469;-64
2023/09/30 02:40:56;;;;;;;13.20;8.20;;;;;;;17.47;100.00;99698.67;108926;1258;68071;-61
2023/09/30 02:43:52;;;;;;;15.20;8.80;;;;;;;17.50;100.00;99704.30;109011;1258;72701;-62
2023/09/30 02:46:39;;;;;;;15.70;8.70;;;;;;;17.51;100.00;99707.20;108993;1258;59796;-63
2023/09/30 02:49:27;;;;;;;15.80;9.00;;;;;;;17.53;100.00;99705.55;109311;1252;58966;-63
2023/09/30 02:52:15;;;;;;;14.70;8.70;;;;;;;17.55;100.00;99709.10;109514;1253;73454;-62
2023/09/30 02:55:04;;;;;;;15.90;9.30;;;;;;;17.56;100.00;99712.23;109486;1253;67116;-63
2023/09/30 02:57:52;;;;;;;14.60;8.30;;;;;;;17.57;100.00;99708.66;109522;1253;73186;-62
2023/09/30 03:00:40;;;;;;;14.30;8.50;;;;;;;17.60;100.00;99712.67;109527;1253;60547;-62
2023/09/30 03:03:28;;;;;;;14.40;8.80;;;;;;;17.60;100.00;99713.03;109546;1253;58701;-63
2023/09/30 03:06:18;;;;;;;13.00;8.20;;;;;;;17.61;100.00;99713.28;109541;1252;70795;-63
2023/09/30 03:09:06;;;;;;;12.50;7.70;;;;;;;17.62;100.00;99716.01;109552;1253;68766;-63
2023/09/30 03:11:56;;;;;;;15.00;8.60;;;;;;;17.61;100.00;99713.60;109526;1253;72302;-63
2023/09/30 03:14:51;;;;;;;13.80;8.60;;;;;;;17.63;100.00;99711.64;109533;1253;59526;-63
2023/09/30 03:17:39;;;;;;;14.20;8.10;;;;;;;17.64;100.00;99719.73;109524;1252;61327;-61
2023/09/30 03:20:27;;;;;;;14.40;8.60;;;;;;;17.64;100.00;99725.48;109489;1257;71903;-63
2023/09/30 03:23:14;;;;;;;14.00;7.60;;;;;;;17.65;100.00;99731.46;109539;1253;67570;-63
2023/09/30 03:26:02;;;;;;;12.40;7.40;;;;;;;17.63;100.00;99737.39;109515;1253;71316;-62
2023/09/30 03:28:50;;;;;;;13.70;6.70;;;;;;;17.60;100.00;99746.71;109512;1252;60547;-63
2023/09/30 03:31:38;;;;;;;12.60;6.50;;;;;;;17.52;100.00;99749.63;109575;1252;60387;-61
2023/09/30 03:34:25;;;;;;;10.50;4.10;;;;;;;17.39;100.00;99761.23;109525;1254;72224;-62
2023/09/30 03:37:13;;;;;;;7.90;3.00;;;;;;;17.25;100.00;99778.30;109540;1252;66699;-62
2023/09/30 03:40:27;;;;;;;18.00;2.50;;;;;;;17.06;99.97;99791.11;109530;1253;73455;-64
2023/09/30 03:43:14;;;;;;;7.70;1.90;;;;;;;16.81;99.54;99794.80;109574;1253;59677;-66
2023/09/30 03:46:02;;;;;;;6.20;1.80;;;;;;;16.64;99.28;99804.52;109568;1253;61102;-63
2023/09/30 03:48:51;;;;;;;8.00;1.90;;;;;;;16.49;98.85;99800.36;109559;1252;72911;-62
2023/09/30 03:51:38;;;;;;;12.40;2.10;;;;;;;16.38;98.94;99809.64;109554;1253;68860;-63
2023/09/30 03:54:26;;;;;;;6.70;2.00;;;;;;;16.26;99.34;99806.96;109554;1253;72398;-62
2023/09/30 03:57:16;;;;;;;7.90;2.30;;;;;;;16.15;99.74;99811.35;109522;1253;59297;-63
2023/09/30 04:00:11;;;;;;;9.80;2.30;;;;;;;16.07;99.69;99816.79;109559;1253;61012;-62
2023/09/30 04:02:59;;;;;;;8.00;2.00;;;;;;;16.00;98.76;99821.48;109554;1252;71882;-63
2023/09/30 04:05:50;;;;;;;10.40;1.90;;;;;;;15.95;98.31;99828.38;109579;1253;68813;-63
2023/09/30 04:08:38;;;;;;;8.60;1.70;;;;;;;15.91;97.67;99830.15;109571;1253;72608;-59
2023/09/30 04:11:26;;;;;;;6.50;1.60;;;;;;;15.83;97.75;99828.54;109632;1252;59318;-58
2023/09/30 04:14:17;;;;;;;6.60;1.50;;;;;;;15.83;97.69;99843.27;109565;1253;61372;-59
2023/09/30 04:17:04;;;;;;;7.40;1.70;;;;;;;15.81;97.64;99846.98;109586;1252;70940;-60
2023/09/30 04:19:53;;;;;;;7.90;1.60;;;;;;;15.79;97.76;99855.47;109413;1253;66572;-59
2023/09/30 04:22:48;;;;;;;8.80;1.60;;;;;;;15.77;97.65;99860.30;109443;1252;72538;-59
2023/09/30 04:25:37;;;;;;;6.40;1.30;;;;;;;15.73;97.72;99862.29;109513;1253;60128;-62
2023/09/30 04:28:24;;;;;;;7.70;1.50;;;;;;;15.69;98.00;99870.44;109585;1253;61736;-59
2023/09/30 04:31:13;;;;;;;9.90;1.90;;;;;;;15.65;97.59;99869.01;109557;1256;73232;-62
2023/09/30 04:34:01;;;;;;;7.80;2.00;;;;;;;15.60;96.23;99869.31;109609;1254;68919;-60
2023/09/30 04:36:49;;;;;;;10.30;1.80;;;;;;;15.58;95.98;99871.68;109496;1253;73840;-58
2023/09/30 04:39:37;;;;;;;8.50;1.80;;;;;;;15.56;94.81;99872.86;109466;1253;59598;-61
2023/09/30 04:42:26;;;;;;;10.30;2.10;;;;;;;15.54;94.06;99875.86;109545;1252;59390;-60
2023/09/30 04:45:19;;;;;;;9.40;2.00;;;;;;;15.53;94.01;99885.52;109511;1253;71008;-59
2023/09/30 04:48:08;;;;;;;11.30;2.10;;;;;;;15.48;93.90;99891.28;109505;1253;68864;-59
2023/09/30 04:50:56;;;;;;;8.30;2.20;;;;;;;15.44;93.28;99896.17;109471;1253;73947;-62
2023/09/30 04:53:46;;;;;;;10.60;3.00;;;;;;;15.37;92.90;99896.85;109439;1253;59685;-61
2023/09/30 04:56:35;;;;;;;10.80;2.40;;;;;;;15.33;92.66;99903.31;109481;1253;61006;-60
2023/09/30 04:59:24;;;;;;;10.00;2.40;;;;;;;15.29;92.33;99904.26;109525;1253;71047;-60
2023/09/30 05:02:14;;;;;;;9.80;2.10;;;;;;;15.26;91.60;99911.59;109576;1253;67980;-60
2023/09/30 05:05:05;;;;;;;10.40;2.40;;;;;;;15.19;90.50;99919.94;109497;1252;72970;-63
2023/09/30 05:07:53;;;;;;;15.10;2.80;;;;;;;15.14;90.16;99929.89;109483;1253;58381;-61
2023/09/30 05:10:41;;;;;;;9.10;2.50;;;;;;;15.07;88.87;99930.39;109512;1253;59066;-59
2023/09/30 05:13:29;;;;;;;11.00;2.90;;;;;;;15.01;88.46;99936.58;109475;1253;73244;-60
2023/09/30 05:16:18;;;;;;;13.50;2.80;;;;;;;14.92;88.35;99943.49;109554;1253;67961;-61
2023/09/30 05:19:05;;;;;;;10.80;2.50;;;;;;;14.82;88.34;99946.23;109520;1253;73012;-65
2023/09/30 05:21:53;;;;;;;11.50;2.70;;;;;;;14.73;87.74;99957.10;109494;1253;58274;-67
2023/09/30 05:24:41;;;;;;;13.60;2.90;;;;;;;14.64;86.02;99962.24;109528;1253;58797;-66
2023/09/30 05:27:29;;;;;;;11.80;2.80;;;;;;;14.59;86.28;99965.73;109497;1253;72651;-65
2023/09/30 05:30:19;;;;;;;13.40;2.60;;;;;;;14.55;86.11;99969.73;109551;1253;67805;-65
2023/09/30 05:33:07;;;;;;;10.20;2.40;;;;;;;14.53;86.15;99972.07;109483;1253;71370;-64
2023/09/30 05:35:55;;;;;;;11.20;2.50;;;;;;;14.50;86.40;99972.55;109471;1252;59146;-66
2023/09/30 05:38:42;;;;;;;10.80;2.60;;;;;;;14.51;86.65;99974.39;109522;1253;58725;-69
2023/09/30 05:41:31;;;;;;;12.80;3.30;;;;;;;14.50;86.43;99976.63;109460;1253;71828;-65
2023/09/30 05:44:19;;;;;;;10.80;2.80;;;;;;;14.51;86.44;99981.73;109564;1254;66536;-65
2023/09/30 05:47:08;;;;;;;11.10;2.40;;;;;;;14.52;86.44;99987.09;109302;1254;73697;-66
2023/09/30 05:49:55;;;;;;;12.90;2.80;;;;;;;14.53;85.92;99987.06;109472;1253;58948;-64
2023/09/30 05:52:47;;;;;;;14.20;3.20;;;;;;;14.55;86.05;99995.44;109487;1253;60187;-64
2023/09/30 05:55:34;;;;;;;13.40;2.60;;;;;;;14.58;86.00;100002.04;109457;1253;72286;-65
2023/09/30 05:58:23;;;;;;;14.30;2.80;;;;;;;14.64;85.41;100004.90;109467;1253;69340;-64
2023/09/30 06:01:12;;;;;;;13.60;2.80;;;;;;;14.76;85.16;100006.11;109469;1253;71420;-67
2023/09/30 06:04:00;;;;;;;11.20;2.80;;;;;;;14.88;84.64;100004.06;109462;1253;56951;-64
2023/09/30 06:06:48;;;;;;;11.40;2.60;;;;;;;14.99;84.29;100015.52;109406;1253;60344;-63
2023/09/30 06:09:36;;;;;;;11.30;2.80;;;;;;;15.05;83.84;100016.89;109513;1253;71260;-66
2023/09/30 06:12:25;;;;;;;14.90;3.20;;;;;;;15.07;83.11;100016.20;109569;1252;67659;-64
2023/09/30 06:15:21;;;;;;;11.90;2.80;;;;;;;15.07;83.10;100015.96;109542;1252;72702;-65
2023/09/30 06:18:12;;;;;;;14.50;2.80;;;;;;;15.10;82.88;100020.52;109476;1252;57938;-66
2023/09/30 06:21:00;;;;;;;12.90;3.00;;;;;;;15.13;82.21;100020.94;109531;1253;61403;-67
2023/09/30 06:23:48;;;;;;;12.90;3.20;;;;;;;15.26;82.37;100018.09;109519;1253;72608;-65
2023/09/30 06:26:39;;;;;;;15.60;3.00;;;;;;;15.35;81.39;100021.50;109544;1254;67872;-66
2023/09/30 06:29:27;;;;;;;12.30;3.00;;;;;;;15.34;80.85;100021.23;109285;1254;71154;-65
2023/09/30 06:32:15;;;;;;;12.10;2.60;;;;;;;15.42;80.66;100025.43;109497;1254;56966;-66
2023/09/30 06:35:05;;;;;;;11.70;2.60;;;;;;;15.42;80.07;100023.13;109502;1253;60397;-66
2023/09/30 06:37:53;;;;;;;11.90;2.80;;;;;;;15.45;79.94;100027.61;109481;1257;70605;-65
2023/09/30 06:40:42;;;;;;;10.40;2.20;;;;;;;15.49;79.49;100031.56;109461;1253;66474;-68
2023/09/30 06:43:29;;;;;;;15.50;3.50;;;;;;;15.59;79.38;100031.17;109443;1254;73417;-65
2023/09/30 06:46:17;;;;;;;11.40;2.60;;;;;;;15.77;78.91;100033.44;109563;1253;57261;-67
2023/09/30 06:49:05;;;;;;;11.30;3.20;;;;;;;16.55;77.10;100028.44;109431;1252;60181;-67
2023/09/30 06:51:53;;;;;;;12.90;3.00;;;;;;;18.13;73.04;100027.25;109160;1254;71859;-65
2023/09/30 06:54:41;;;;;;;13.50;3.10;;;;;;;19.58;66.14;100026.45;109317;1254;66266;-65
2023/09/30 06:57:29;;;;;;;11.20;2.60;;;;;;;20.79;60.73;100033.06;109314;1258;73707;-68
2023/09/30 07:00:16;;;;;;;13.20;2.80;;;;;;;21.90;56.76;100035.03;109235;1254;56950;-68
2023/09/30 07:03:05;;;;;;;9.80;2.60;;;;;;;22.89;53.28;100038.62;109212;1260;61402;-69
2023/09/30 07:05:54;;;;;;;10.40;2.70;;;;;;;23.56;49.51;100041.91;109317;1254;73275;-69
2023/09/30 07:08:43;;;;;;;12.50;3.00;;;;;;;24.29;47.96;100039.65;109246;1254;66455;-67
2023/09/30 07:11:34;;;;;;;12.70;3.00;;;;;;;24.86;45.25;100044.87;109266;1255;72372;-67
2023/09/30 07:14:22;;;;;;;12.50;2.50;;;;;;;25.25;43.95;100048.55;109180;1254;57874;-67
2023/09/30 07:17:09;;;;;;;10.00;3.20;;;;;;;25.68;43.16;100049.17;109336;1254;60313;-64
2023/09/30 07:19:59;;;;;;;10.30;2.70;;;;;;;25.78;42.20;100049.77;109279;1254;71097;-66
2023/09/30 07:22:47;;;;;;;10.80;2.50;;;;;;;25.97;41.64;100054.30;109331;1254;67694;-65
2023/09/30 07:25:54;;;;;;;11.40;2.90;;;;;;;26.50;41.18;100054.42;109270;1254;72412;-66
2023/09/30 07:28:42;;;;;;;9.90;2.60;;;;;;;27.14;38.65;100061.04;109208;1254;59017;-64
2023/09/30 07:31:35;;;;;;;9.70;2.70;;;;;;;27.60;37.43;100063.52;109293;1254;60453;-64
2023/09/30 07:34:23;;;;;;;9.10;2.70;;;;;;;28.21;36.48;100059.77;109340;1258;72005;-68
2023/09/30 07:37:14;;;;;;;11.00;2.60;;;;;;;28.51;35.30;100062.23;109262;1254;67911;-66
2023/09/30 07:40:01;;;;;;;10.30;2.40;;;;;;;28.73;34.40;100067.34;109145;1254;72500;-65
2023/09/30 07:42:50;;;;;;;11.10;2.50;;;;;;;27.94;34.96;100075.16;109280;1254;59154;-64
2023/09/30 07:45:37;;;;;;;9.00;2.30;;;;;;;27.27;36.03;100077.73;109320;1255;60070;-65
2023/09/30 07:48:26;;;;;;;8.80;2.00;;;;;;;27.29;36.48;100076.05;109297;1254;71499;-66
2023/09/30 07:51:15;;;;;;;8.50;2.30;;;;;;;27.23;36.89;100077.36;109360;1254;66572;-65
2023/09/30 07:54:03;;;;;;;10.20;2.50;;;;;;;27.37;35.94;100078.81;109428;1254;71343;-63
2023/09/30 07:57:11;;;;;;;9.60;2.20;;;;;;;26.62;37.00;100076.80;109370;1254;57661;-63
2023/09/30 07:59:58;;;;;;;7.30;2.00;;;;;;;25.47;39.02;100086.06;109382;1253;60277;-68
2023/09/30 08:02:46;;;;;;;9.00;2.50;;;;;;;24.33;41.28;100091.37;109426;1254;71996;-64
2023/09/30 08:05:34;;;;;;;11.70;2.30;;;;;;;23.20;43.88;100098.02;109341;1254;67854;-63
2023/09/30 08:08:23;;;;;;;11.10;2.50;;;;;;;22.19;46.33;100102.63;109419;1254;71808;-64
2023/09/30 08:11:12;;;;;;;12.10;2.70;;;;;;;21.29;48.90;100106.36;109451;1254;58032;-65
2023/09/30 08:14:06;;;;;;;11.60;2.40;;;;;;;20.73;51.02;100114.52;109317;1254;61132;-64
2023/09/30 08:16:54;;;;;;;11.00;2.70;;;;;;;20.33;52.18;100109.95;109415;1254;72306;-64
2023/09/30 08:19:42;;;;;;;9.60;2.10;;;;;;;20.60;52.64;100108.46;109429;1254;66473;-65
2023/09/30 08:22:30;;;;;;;11.00;2.70;;;;;;;22.40;49.31;100095.76;109429;1254;71179;-67
2023/09/30 08:25:18;;;;;;;10.00;2.20;;;;;;;23.91;44.44;100093.69;109390;1254;56771;-65
2023/09/30 08:28:06;;;;;;;9.10;1.90;;;;;;;25.04;40.64;100096.05;109450;1254;60417;-64
2023/09/30 08:30:58;;;;;;;9.40;2.30;;;;;;;25.91;39.33;100098.96;109368;1254;71957;-65
2023/09/30 08:33:46;;;;;;;9.20;2.00;;;;;;;27.27;36.27;100099.20;109225;1254;68712;-64
2023/09/30 08:36:35;;;;;;;9.30;2.00;;;;;;;27.10;35.86;100103.00;109408;1254;71146;-65
2023/09/30 08:39:23;;;;;;;8.60;1.90;;;;;;;25.73;37.67;100104.98;109408;1254;58065;-67
2023/09/30 08:42:11;;;;;;;10.80;2.30;;;;;;;24.68;40.03;100118.60;109419;1254;59158;-65
2023/09/30 08:44:59;;;;;;;9.50;2.10;;;;;;;23.40;42.40;100123.48;109420;1254;72184;-63
2023/09/30 08:47:47;;;;;;;7.80;2.00;;;;;;;22.33;44.28;100125.14;109438;1253;67585;-66
2023/09/30 08:50:38;;;;;;;9.30;2.00;;;;;;;21.80;45.96;100126.30;109429;1253;72752;-65
2023/09/30 08:53:28;;;;;;;9.80;2.30;;;;;;;23.02;44.80;100135.27;109505;1253;58936;-64
2023/09/30 08:56:16;;;;;;;9.10;2.40;;;;;;;23.37;43.08;100133.66;109422;1252;61222;-64
2023/09/30 08:59:03;;;;;;;8.70;2.20;;;;;;;23.85;42.62;100133.00;109365;1252;73034;-66
2023/09/30 09:01:51;;;;;;;10.80;2.20;;;;;;;25.29;39.20;100137.41;109439;1253;67779;-64
2023/09/30 09:04:39;;;;;;;10.10;1.90;;;;;;;26.22;36.74;100130.60;109519;1253;73383;-65
2023/09/30 09:07:27;;;;;;;8.40;2.20;;;;;;;25.10;38.17;100143.21;109468;1253;58548;-67
2023/09/30 09:10:15;;;;;;;9.20;2.40;;;;;;;24.20;40.07;100140.42;109491;1253;60087;-65
2023/09/30 09:13:03;;;;;;;11.10;2.10;;;;;;;24.31;40.12;100143.52;109477;1254;72067;-68
2023/09/30 09:16:10;;;;;;;8.70;2.30;;;;;;;23.85;41.29;100144.42;109437;1253;67848;-65
2023/09/30 09:18:58;;;;;;;12.30;2.10;;;;;;;25.35;39.71;100148.97;109353;1253;71418;-65
2023/09/30 09:21:58;;;;;;;9.70;2.10;;;;;;;25.18;38.85;100154.20;109511;1253;56966;-65
2023/09/30 09:24:47;;;;;;;8.60;2.00;;;;;;;24.58;39.62;100154.17;109421;1254;60539;-65
2023/09/30 09:27:38;;;;;;;9.20;2.20;;;;;;;24.56;40.04;100157.19;109493;1253;72139;-69
2023/09/30 09:30:27;;;;;;;10.10;1.90;;;;;;;24.83;39.49;100157.95;109471;1253;67846;-64
2023/09/30 09:33:15;;;;;;;10.00;2.10;;;;;;;24.26;39.98;100159.80;109429;1254;73749;-65
2023/09/30 09:36:05;;;;;;;8.80;2.00;;;;;;;23.50;41.11;100167.97;109509;1253;56910;-67
2023/09/30 09:38:53;;;;;;;11.50;2.50;;;;;;;22.52;42.45;100173.70;109465;1253;61362;-63
2023/09/30 09:41:52;;;;;;;11.10;2.50;;;;;;;22.10;43.93;100175.90;109410;1253;71272;-65
2023/09/30 09:44:41;;;;;;;10.30;2.10;;;;;;;24.07;41.24;100165.75;109415;1253;66372;-65
2023/09/30 09:47:33;;;;;;;6.80;1.90;;;;;;;25.89;37.95;100162.52;109354;1253;72839;-68
2023/09/30 09:50:22;;;;;;;11.00;1.90;;;;;;;27.70;34.92;100160.60;109321;1254;56835;-64
2023/09/30 09:53:11;;;;;;;9.00;2.10;;;;;;;28.72;31.45;100160.64;109458;1253;60431;-64
2023/09/30 09:56:00;;;;;;;8.30;2.10;;;;;;;29.38;29.53;100161.42;109429;1254;73283;-67
2023/09/30 09:58:49;;;;;;;11.10;2.10;;;;;;;30.02;28.41;100162.98;109365;1253;68581;-65
2023/09/30 10:01:40;;;;;;;8.10;2.00;;;;;;;29.95;28.80;100165.82;109374;1253;72401;-66
2023/09/30 10:04:28;;;;;;;13.30;2.10;;;;;;;28.41;30.23;100168.35;109415;1254;56916;-67
2023/09/30 10:07:25;;;;;;;8.90;2.00;;;;;;;26.98;32.83;100171.73;109493;1252;58808;-67
2023/09/30 10:10:17;;;;;;;8.80;1.80;;;;;;;25.97;34.78;100176.02;109389;1254;73269;-67
2023/09/30 10:13:05;;;;;;;8.90;2.00;;;;;;;25.71;35.86;100177.58;109419;1254;66581;-66
2023/09/30 10:15:54;;;;;;;8.50;2.10;;;;;;;26.54;34.93;100173.98;109504;1252;71425;-66
2023/09/30 10:19:08;;;;;;;10.10;2.30;;;;;;;25.74;35.84;100174.61;109491;1253;57041;-67
2023/09/30 10:22:19;;;;;;;8.70;1.80;;;;;;;24.48;38.10;100172.62;109426;1253;60065;-70
2023/09/30 10:25:36;;;;;;;9.00;2.10;;;;;;;23.75;39.75;100183.77;109337;1254;71045;-65
2023/09/30 10:28:37;;;;;;;9.40;2.00;;;;;;;22.78;42.14;100189.78;109500;1252;68797;-65
2023/09/30 10:31:25;;;;;;;8.20;1.90;;;;;;;21.63;44.90;100203.45;109442;1253;71474;-66
2023/09/30 10:34:23;;;;;;;10.40;2.50;;;;;;;20.85;47.19;100198.04;109441;1252;57257;-64
2023/09/30 10:37:28;;;;;;;10.20;2.30;;;;;;;20.15;49.60;100200.45;109466;1252;61381;-65
2023/09/30 10:40:31;;;;;;;10.90;2.30;;;;;;;19.87;51.18;100206.54;109236;1253;71305;-66
2023/09/30 10:43:40;;;;;;;10.40;2.20;;;;;;;20.10;51.47;100201.94;109379;1253;68870;-65
2023/09/30 10:46:27;;;;;;;13.30;2.60;;;;;;;21.59;48.66;100194.97;109388;1252;71322;-63
2023/09/30 10:49:22;;;;;;;10.30;2.10;;;;;;;23.51;44.55;100190.18;109525;1252;59145;-68
2023/09/30 10:52:10;;;;;;;10.20;2.50;;;;;;;24.95;41.04;100190.98;109363;1253;61329;-66
2023/09/30 10:55:04;;;;;;;9.10;2.50;;;;;;;25.41;39.33;100193.84;109430;1253;72283;-66
2023/09/30 10:57:52;;;;;;;10.90;2.40;;;;;;;26.24;37.81;100203.61;109532;1252;67928;-65
2023/09/30 11:00:52;;;;;;;10.60;1.90;;;;;;;26.87;36.10;100197.16;109399;1253;72594;-63
2023/09/30 11:03:44;;;;;;;10.10;2.50;;;;;;;27.29;35.20;100202.36;109324;1252;57060;-65
2023/09/30 11:06:32;;;;;;;9.30;2.30;;;;;;;27.83;34.40;100201.77;109507;1253;60231;-64
2023/09/30 11:09:22;;;;;;;10.70;2.50;;;;;;;28.29;33.80;100207.05;109363;1253;72076;-64
2023/09/30 11:12:14;;;;;;;9.30;1.90;;;;;;;27.25;34.89;100199.22;109281;1253;67621;-64
2023/09/30 11:15:03;;;;;;;10.80;2.30;;;;;;;26.56;35.96;100196.52;109413;1252;73651;-67
2023/09/30 11:18:13;;;;;;;9.90;2.20;;;;;;;26.77;35.59;100201.95;109395;1253;56948;-66
2023/09/30 11:21:04;;;;;;;9.10;2.30;;;;;;;25.67;37.20;100204.23;109369;1252;60677;-65
2023/09/30 11:23:52;;;;;;;11.20;2.20;;;;;;;24.52;39.18;100210.32;109387;1253;71798;-65
2023/09/30 11:26:41;;;;;;;8.90;2.10;;;;;;;23.84;40.11;100214.29;109401;1253;68725;-69
2023/09/30 11:29:28;;;;;;;10.10;1.80;;;;;;;23.85;40.20;100214.16;109484;1252;71509;-64
2023/09/30 11:32:29;;;;;;;12.30;2.30;;;;;;;23.83;40.38;100210.09;109444;1252;56965;-69
2023/09/30 11:35:23;;;;;;;9.50;2.20;;;;;;;24.14;39.60;100209.55;109515;1252;58792;-64
2023/09/30 11:38:11;;;;;;;10.20;2.30;;;;;;;24.22;38.93;100205.47;109305;1252;72942;-67
2023/09/30 11:41:05;;;;;;;8.60;2.00;;;;;;;24.32;39.02;100209.54;109426;1253;66931;-65
2023/09/30 11:44:04;;;;;;;10.30;2.40;;;;;;;23.79;40.25;100216.17;109377;1253;73399;-65
2023/09/30 11:47:04;;;;;;;10.70;2.10;;;;;;;23.39;41.43;100211.41;109396;1252;57398;-63
2023/09/30 11:49:54;;;;;;;11.90;2.50;;;;;;;22.80;42.42;100216.39;109352;1252;59122;-65
2023/09/30 11:52:46;;;;;;;11.20;2.50;;;;;;;22.44;43.72;100211.81;109369;1252;72914;-66
2023/09/30 11:55:37;;;;;;;8.60;1.80;;;;;;;22.29;44.30;100210.14;109500;1252;65482;-63
2023/09/30 11:58:28;;;;;;;9.90;2.20;;;;;;;22.51;43.31;100212.67;109510;1252;73860;-64
2023/09/30 12:01:16;;;;;;;10.50;2.40;;;;;;;22.86;42.70;100207.92;109499;1252;56959;-66
2023/09/30 12:04:04;;;;;;;11.30;2.00;;;;;;;23.41;42.20;100204.45;109487;1252;59934;-63
2023/09/30 12:06:52;;;;;;;8.70;2.30;;;;;;;23.23;41.52;100209.18;109452;1252;72198;-66
2023/09/30 12:09:40;;;;;;;10.10;2.00;;;;;;;22.70;42.00;100215.18;109441;1252;67880;-64
2023/09/30 12:12:29;;;;;;;10.10;2.00;;;;;;;22.21;42.67;100223.23;109421;1252;71522;-62
2023/09/30 12:15:17;;;;;;;9.70;1.90;;;;;;;21.70;44.16;100224.50;109480;1252;56901;-63
2023/09/30 12:18:05;;;;;;;11.80;2.50;;;;;;;21.38;45.09;100222.88;109537;1252;60340;-65
2023/09/30 12:20:54;;;;;;;11.10;2.30;;;;;;;21.18;45.65;100222.98;109200;1253;70691;-64
2023/09/30 12:23:42;;;;;;;9.30;2.00;;;;;;;21.08;45.91;100220.55;109483;1252;66166;-65
2023/09/30 12:26:31;;;;;;;10.00;2.00;;;;;;;21.01;46.33;100215.45;109404;1253;72494;-64
2023/09/30 12:29:21;;;;;;;12.90;3.40;;;;;;;21.05;46.67;100218.25;109477;1252;57519;-66
2023/09/30 12:32:09;;;;;;;13.30;3.90;;;;;;;20.91;45.92;100217.41;109499;1252;59197;-64
2023/09/30 12:34:57;;;;;;;10.10;2.10;;;;;;;20.67;46.23;100212.59;109466;1252;71280;-65
2023/09/30 12:37:45;;;;;;;9.00;1.60;;;;;;;20.29;47.03;100219.04;109512;1252;68025;-65
2023/09/30 12:40:33;;;;;;;9.60;2.00;;;;;;;19.90;47.63;100223.69;109378;1253;72361;-64
2023/09/30 12:43:22;;;;;;;12.70;2.10;;;;;;;19.73;48.03;100229.84;109330;1253;57895;-67
2023/09/30 12:46:09;;;;;;;11.90;2.10;;;;;;;19.66;47.68;100231.94;109454;1253;61356;-65
2023/09/30 12:48:57;;;;;;;15.30;2.20;;;;;;;19.64;48.00;100235.62;109491;1252;72282;-63
2023/09/30 12:51:46;;;;;;;10.40;2.10;;;;;;;19.64;48.58;100237.02;109454;1252;68849;-64
2023/09/30 12:54:34;;;;;;;9.80;2.30;;;;;;;19.66;49.21;100235.30;109421;1253;72798;-64